sensor_id;sensor_type;location;lat;lon;timestamp;P1;durP1;ratioP1;P2;durP2;ratioP2
29384;SDS011;16367;48.736;9.218;2023-11-21T00:01:31;11.00;;;2.30;;
29384;SDS011;16367;48.736;9.218;2023-11-21T00:03:33;7.20;;;1.55;;
29384;SDS011;16367;48.736;9.218;2023-11-21T00:05:35;4.43;;;1.40;;
29384;SDS011;16367;48.736;9.218;2023-11-21T00:07:36;5.15;;;1.77;;
29384;SDS011;16367;48.736;9.218;2023-11-21T00:09:38;5.47;;;1.63;;
29384;SDS011;16367;48.736;9.218;2023-11-21T00:11:39;5.07;;;1.42;;
29384;SDS011;16367;48.736;9.218;2023-11-21T00:13:41;3.40;;;1.27;;
29384;SDS011;16367;48.736;9.218;2023-11-21T00:15:42;9.05;;;1.70;;
29384;SDS011;16367;48.736;9.218;2023-11-21T00:17:44;4.05;;;1.60;;
29384;SDS011;16367;48.736;9.218;2023-11-21T00:25:59;5.32;;;1.70;;
29384;SDS011;16367;48.736;9.218;2023-11-21T00:28:00;6.53;;;1.92;;
29384;SDS011;16367;48.736;9.218;2023-11-21T00:30:02;6.78;;;1.58;;
29384;SDS011;16367;48.736;9.218;2023-11-21T00:32:05;10.00;;;1.90;;
29384;SDS011;16367;48.736;9.218;2023-11-21T00:34:07;12.70;;;2.20;;
29384;SDS011;16367;48.736;9.218;2023-11-21T00:36:09;5.03;;;2.00;;
29384;SDS011;16367;48.736;9.218;2023-11-21T00:38:10;6.57;;;1.92;;
29384;SDS011;16367;48.736;9.218;2023-11-21T00:40:12;5.05;;;1.70;;
29384;SDS011;16367;48.736;9.218;2023-11-21T00:42:16;6.88;;;1.90;;
29384;SDS011;16367;48.736;9.218;2023-11-21T00:48:32;6.03;;;1.40;;
29384;SDS011;16367;48.736;9.218;2023-11-21T00:50:33;7.88;;;2.00;;
29384;SDS011;16367;48.736;9.218;2023-11-21T00:52:35;7.18;;;1.65;;
29384;SDS011;16367;48.736;9.218;2023-11-21T00:54:36;5.20;;;1.20;;
29384;SDS011;16367;48.736;9.218;2023-11-21T00:56:38;6.97;;;2.03;;
29384;SDS011;16367;48.736;9.218;2023-11-21T00:58:40;5.68;;;1.55;;
29384;SDS011;16367;48.736;9.218;2023-11-21T01:00:43;3.42;;;1.30;;
29384;SDS011;16367;48.736;9.218;2023-11-21T01:02:44;8.32;;;1.75;;
29384;SDS011;16367;48.736;9.218;2023-11-21T01:04:46;5.25;;;1.52;;
29384;SDS011;16367;48.736;9.218;2023-11-21T01:11:03;5.22;;;1.30;;
29384;SDS011;16367;48.736;9.218;2023-11-21T01:13:08;8.13;;;1.63;;
29384;SDS011;16367;48.736;9.218;2023-11-21T01:15:09;9.95;;;2.80;;
29384;SDS011;16367;48.736;9.218;2023-11-21T01:17:12;7.85;;;1.45;;
29384;SDS011;16367;48.736;9.218;2023-11-21T01:19:14;4.85;;;1.70;;
29384;SDS011;16367;48.736;9.218;2023-11-21T01:21:15;4.57;;;1.35;;
29384;SDS011;16367;48.736;9.218;2023-11-21T01:23:17;8.70;;;1.48;;
29384;SDS011;16367;48.736;9.218;2023-11-21T01:25:18;4.03;;;1.25;;
29384;SDS011;16367;48.736;9.218;2023-11-21T01:27:20;7.55;;;1.35;;
29384;SDS011;16367;48.736;9.218;2023-11-21T01:29:21;5.38;;;1.25;;
29384;SDS011;16367;48.736;9.218;2023-11-21T01:37:10;11.60;;;1.70;;
29384;SDS011;16367;48.736;9.218;2023-11-21T01:39:12;3.78;;;1.42;;
29384;SDS011;16367;48.736;9.218;2023-11-21T01:41:15;5.07;;;1.38;;
29384;SDS011;16367;48.736;9.218;2023-11-21T01:43:17;3.70;;;1.20;;
29384;SDS011;16367;48.736;9.218;2023-11-21T01:45:18;9.25;;;1.40;;
29384;SDS011;16367;48.736;9.218;2023-11-21T01:47:20;5.50;;;1.30;;
29384;SDS011;16367;48.736;9.218;2023-11-21T01:49:22;3.35;;;1.23;;
29384;SDS011;16367;48.736;9.218;2023-11-21T01:51:23;4.97;;;1.35;;
29384;SDS011;16367;48.736;9.218;2023-11-21T01:53:25;5.22;;;1.25;;
29384;SDS011;16367;48.736;9.218;2023-11-21T01:58:06;6.70;;;1.40;;
29384;SDS011;16367;48.736;9.218;2023-11-21T02:00:08;5.78;;;1.33;;
29384;SDS011;16367;48.736;9.218;2023-11-21T02:02:16;5.00;;;1.50;;
29384;SDS011;16367;48.736;9.218;2023-11-21T02:04:17;11.77;;;1.63;;
29384;SDS011;16367;48.736;9.218;2023-11-21T02:06:19;4.88;;;1.30;;
29384;SDS011;16367;48.736;9.218;2023-11-21T02:08:22;1.95;;;0.82;;
29384;SDS011;16367;48.736;9.218;2023-11-21T02:10:24;7.78;;;1.40;;
29384;SDS011;16367;48.736;9.218;2023-11-21T02:12:25;4.78;;;1.25;;
29384;SDS011;16367;48.736;9.218;2023-11-21T02:14:28;4.80;;;1.27;;
29384;SDS011;16367;48.736;9.218;2023-11-21T02:20:44;9.27;;;1.80;;
29384;SDS011;16367;48.736;9.218;2023-11-21T02:22:49;4.15;;;1.13;;
29384;SDS011;16367;48.736;9.218;2023-11-21T02:24:52;6.10;;;1.40;;
29384;SDS011;16367;48.736;9.218;2023-11-21T02:26:53;3.55;;;0.90;;
29384;SDS011;16367;48.736;9.218;2023-11-21T02:28:55;3.63;;;1.00;;
29384;SDS011;16367;48.736;9.218;2023-11-21T02:30:58;4.28;;;1.15;;
29384;SDS011;16367;48.736;9.218;2023-11-21T02:33:00;3.47;;;1.05;;
29384;SDS011;16367;48.736;9.218;2023-11-21T02:35:01;3.72;;;1.08;;
29384;SDS011;16367;48.736;9.218;2023-11-21T02:37:03;4.43;;;1.10;;
29384;SDS011;16367;48.736;9.218;2023-11-21T02:45:15;4.20;;;1.17;;
29384;SDS011;16367;48.736;9.218;2023-11-21T02:47:17;3.38;;;0.85;;
29384;SDS011;16367;48.736;9.218;2023-11-21T02:49:18;5.03;;;1.02;;
29384;SDS011;16367;48.736;9.218;2023-11-21T02:51:20;4.45;;;1.10;;
29384;SDS011;16367;48.736;9.218;2023-11-21T02:53:21;3.30;;;1.00;;
29384;SDS011;16367;48.736;9.218;2023-11-21T02:55:22;2.28;;;0.70;;
29384;SDS011;16367;48.736;9.218;2023-11-21T02:57:25;4.43;;;1.02;;
29384;SDS011;16367;48.736;9.218;2023-11-21T02:59:26;3.85;;;1.42;;
29384;SDS011;16367;48.736;9.218;2023-11-21T03:01:28;4.88;;;0.90;;
29384;SDS011;16367;48.736;9.218;2023-11-21T03:05:43;3.25;;;1.00;;
29384;SDS011;16367;48.736;9.218;2023-11-21T03:07:44;2.63;;;0.57;;
29384;SDS011;16367;48.736;9.218;2023-11-21T03:09:46;3.50;;;0.85;;
29384;SDS011;16367;48.736;9.218;2023-11-21T03:11:47;2.55;;;0.75;;
29384;SDS011;16367;48.736;9.218;2023-11-21T03:13:48;3.10;;;1.00;;
29384;SDS011;16367;48.736;9.218;2023-11-21T03:15:50;3.63;;;1.00;;
29384;SDS011;16367;48.736;9.218;2023-11-21T03:17:51;2.88;;;0.70;;
29384;SDS011;16367;48.736;9.218;2023-11-21T03:19:53;3.88;;;1.00;;
29384;SDS011;16367;48.736;9.218;2023-11-21T03:21:55;2.53;;;0.80;;
29384;SDS011;16367;48.736;9.218;2023-11-21T03:30:07;2.75;;;0.90;;
29384;SDS011;16367;48.736;9.218;2023-11-21T03:32:10;4.85;;;0.90;;
29384;SDS011;16367;48.736;9.218;2023-11-21T03:34:14;3.75;;;0.80;;
29384;SDS011;16367;48.736;9.218;2023-11-21T03:36:17;2.83;;;0.90;;
29384;SDS011;16367;48.736;9.218;2023-11-21T03:38:18;2.42;;;0.82;;
29384;SDS011;16367;48.736;9.218;2023-11-21T03:40:20;3.78;;;0.85;;
29384;SDS011;16367;48.736;9.218;2023-11-21T03:42:22;4.95;;;0.98;;
29384;SDS011;16367;48.736;9.218;2023-11-21T03:44:23;4.32;;;1.02;;
29384;SDS011;16367;48.736;9.218;2023-11-21T03:46:25;2.10;;;0.73;;
29384;SDS011;16367;48.736;9.218;2023-11-21T03:51:47;3.10;;;0.73;;
29384;SDS011;16367;48.736;9.218;2023-11-21T03:53:49;2.50;;;0.77;;
29384;SDS011;16367;48.736;9.218;2023-11-21T03:55:50;3.03;;;0.90;;
29384;SDS011;16367;48.736;9.218;2023-11-21T03:57:51;3.03;;;0.80;;
29384;SDS011;16367;48.736;9.218;2023-11-21T03:59:53;2.20;;;0.80;;
29384;SDS011;16367;48.736;9.218;2023-11-21T04:01:55;4.50;;;0.90;;
29384;SDS011;16367;48.736;9.218;2023-11-21T04:03:57;4.43;;;0.80;;
29384;SDS011;16367;48.736;9.218;2023-11-21T04:05:59;3.75;;;0.70;;
29384;SDS011;16367;48.736;9.218;2023-11-21T04:08:02;3.10;;;0.75;;
29384;SDS011;16367;48.736;9.218;2023-11-21T04:12:28;2.67;;;0.63;;
29384;SDS011;16367;48.736;9.218;2023-11-21T04:14:30;5.18;;;1.10;;
29384;SDS011;16367;48.736;9.218;2023-11-21T04:16:32;4.28;;;0.80;;
29384;SDS011;16367;48.736;9.218;2023-11-21T04:18:34;3.38;;;0.60;;
29384;SDS011;16367;48.736;9.218;2023-11-21T04:20:36;2.83;;;0.75;;
29384;SDS011;16367;48.736;9.218;2023-11-21T04:22:38;2.67;;;0.80;;
29384;SDS011;16367;48.736;9.218;2023-11-21T04:24:41;1.55;;;0.50;;
29384;SDS011;16367;48.736;9.218;2023-11-21T04:26:43;2.78;;;0.60;;
29384;SDS011;16367;48.736;9.218;2023-11-21T04:28:45;3.17;;;0.70;;
29384;SDS011;16367;48.736;9.218;2023-11-21T04:34:55;2.05;;;0.70;;
29384;SDS011;16367;48.736;9.218;2023-11-21T04:36:57;4.20;;;0.98;;
29384;SDS011;16367;48.736;9.218;2023-11-21T04:38:58;3.90;;;1.10;;
29384;SDS011;16367;48.736;9.218;2023-11-21T04:41:00;3.35;;;0.90;;
29384;SDS011;16367;48.736;9.218;2023-11-21T04:43:04;2.28;;;0.60;;
29384;SDS011;16367;48.736;9.218;2023-11-21T04:45:05;1.38;;;0.57;;
29384;SDS011;16367;48.736;9.218;2023-11-21T04:47:09;3.60;;;0.77;;
29384;SDS011;16367;48.736;9.218;2023-11-21T04:49:11;2.28;;;0.63;;
29384;SDS011;16367;48.736;9.218;2023-11-21T04:51:13;3.90;;;0.55;;
29384;SDS011;16367;48.736;9.218;2023-11-21T04:53:15;1.58;;;0.50;;
29384;SDS011;16367;48.736;9.218;2023-11-21T04:58:06;2.60;;;0.70;;
29384;SDS011;16367;48.736;9.218;2023-11-21T05:00:09;3.38;;;0.80;;
29384;SDS011;16367;48.736;9.218;2023-11-21T05:02:11;3.17;;;0.70;;
29384;SDS011;16367;48.736;9.218;2023-11-21T05:04:33;2.00;;;0.50;;
29384;SDS011;16367;48.736;9.218;2023-11-21T05:06:34;2.45;;;0.60;;
29384;SDS011;16367;48.736;9.218;2023-11-21T05:08:36;2.67;;;0.80;;
29384;SDS011;16367;48.736;9.218;2023-11-21T05:10:38;1.65;;;0.60;;
29384;SDS011;16367;48.736;9.218;2023-11-21T05:12:40;2.83;;;0.82;;
29384;SDS011;16367;48.736;9.218;2023-11-21T05:14:42;2.28;;;0.65;;
29384;SDS011;16367;48.736;9.218;2023-11-21T05:20:57;1.85;;;0.60;;
29384;SDS011;16367;48.736;9.218;2023-11-21T05:22:58;1.77;;;0.68;;
29384;SDS011;16367;48.736;9.218;2023-11-21T05:25:00;2.15;;;0.73;;
29384;SDS011;16367;48.736;9.218;2023-11-21T05:27:01;3.25;;;0.80;;
29384;SDS011;16367;48.736;9.218;2023-11-21T05:29:02;3.08;;;0.70;;
29384;SDS011;16367;48.736;9.218;2023-11-21T05:31:04;3.75;;;1.25;;
29384;SDS011;16367;48.736;9.218;2023-11-21T05:33:16;3.13;;;0.95;;
29384;SDS011;16367;48.736;9.218;2023-11-21T05:35:18;1.50;;;0.40;;
29384;SDS011;16367;48.736;9.218;2023-11-21T05:37:20;3.25;;;1.05;;
29384;SDS011;16367;48.736;9.218;2023-11-21T05:42:22;2.53;;;0.68;;
29384;SDS011;16367;48.736;9.218;2023-11-21T05:44:24;3.88;;;0.70;;
29384;SDS011;16367;48.736;9.218;2023-11-21T05:46:25;1.70;;;0.70;;
29384;SDS011;16367;48.736;9.218;2023-11-21T05:48:27;3.55;;;0.73;;
29384;SDS011;16367;48.736;9.218;2023-11-21T05:50:29;2.40;;;0.50;;
29384;SDS011;16367;48.736;9.218;2023-11-21T05:52:31;2.55;;;0.80;;
29384;SDS011;16367;48.736;9.218;2023-11-21T05:54:33;4.32;;;0.80;;
29384;SDS011;16367;48.736;9.218;2023-11-21T05:56:34;3.50;;;1.00;;
29384;SDS011;16367;48.736;9.218;2023-11-21T05:58:36;2.60;;;0.80;;
29384;SDS011;16367;48.736;9.218;2023-11-21T06:04:51;3.40;;;0.70;;
29384;SDS011;16367;48.736;9.218;2023-11-21T06:06:53;3.80;;;0.63;;
29384;SDS011;16367;48.736;9.218;2023-11-21T06:08:54;3.00;;;0.60;;
29384;SDS011;16367;48.736;9.218;2023-11-21T06:10:56;1.98;;;0.60;;
29384;SDS011;16367;48.736;9.218;2023-11-21T06:12:58;3.10;;;0.80;;
29384;SDS011;16367;48.736;9.218;2023-11-21T06:15:04;3.30;;;0.80;;
29384;SDS011;16367;48.736;9.218;2023-11-21T06:17:09;1.95;;;0.75;;
29384;SDS011;16367;48.736;9.218;2023-11-21T06:19:11;2.35;;;0.80;;
29384;SDS011;16367;48.736;9.218;2023-11-21T06:21:13;5.20;;;1.25;;
29384;SDS011;16367;48.736;9.218;2023-11-21T06:27:30;3.38;;;1.15;;
29384;SDS011;16367;48.736;9.218;2023-11-21T06:29:32;4.57;;;0.80;;
29384;SDS011;16367;48.736;9.218;2023-11-21T06:31:33;3.65;;;1.20;;
29384;SDS011;16367;48.736;9.218;2023-11-21T06:33:35;3.47;;;1.00;;
29384;SDS011;16367;48.736;9.218;2023-11-21T06:35:36;3.20;;;0.80;;
29384;SDS011;16367;48.736;9.218;2023-11-21T06:37:38;3.10;;;1.00;;
29384;SDS011;16367;48.736;9.218;2023-11-21T06:39:39;3.03;;;1.30;;
29384;SDS011;16367;48.736;9.218;2023-11-21T06:41:40;4.07;;;1.27;;
29384;SDS011;16367;48.736;9.218;2023-11-21T06:43:42;4.22;;;1.58;;
29384;SDS011;16367;48.736;9.218;2023-11-21T06:50:14;3.80;;;1.08;;
29384;SDS011;16367;48.736;9.218;2023-11-21T06:52:16;3.08;;;1.20;;
29384;SDS011;16367;48.736;9.218;2023-11-21T06:54:17;3.72;;;1.30;;
29384;SDS011;16367;48.736;9.218;2023-11-21T06:56:19;4.03;;;1.00;;
29384;SDS011;16367;48.736;9.218;2023-11-21T06:58:21;6.53;;;1.63;;
29384;SDS011;16367;48.736;9.218;2023-11-21T07:00:22;3.50;;;1.33;;
29384;SDS011;16367;48.736;9.218;2023-11-21T07:02:24;3.65;;;1.10;;
29384;SDS011;16367;48.736;9.218;2023-11-21T07:04:25;4.00;;;1.33;;
29384;SDS011;16367;48.736;9.218;2023-11-21T07:06:27;3.70;;;1.20;;
29384;SDS011;16367;48.736;9.218;2023-11-21T07:13:11;4.45;;;1.20;;
29384;SDS011;16367;48.736;9.218;2023-11-21T07:15:13;3.80;;;1.30;;
29384;SDS011;16367;48.736;9.218;2023-11-21T07:17:14;3.83;;;1.02;;
29384;SDS011;16367;48.736;9.218;2023-11-21T07:19:17;4.00;;;1.70;;
29384;SDS011;16367;48.736;9.218;2023-11-21T07:21:20;4.38;;;1.30;;
29384;SDS011;16367;48.736;9.218;2023-11-21T07:23:21;3.90;;;1.40;;
29384;SDS011;16367;48.736;9.218;2023-11-21T07:25:23;3.25;;;1.00;;
29384;SDS011;16367;48.736;9.218;2023-11-21T07:27:24;4.07;;;1.58;;
29384;SDS011;16367;48.736;9.218;2023-11-21T07:29:26;3.45;;;1.25;;
29384;SDS011;16367;48.736;9.218;2023-11-21T07:34:07;2.80;;;1.08;;
29384;SDS011;16367;48.736;9.218;2023-11-21T07:36:09;3.50;;;1.05;;
29384;SDS011;16367;48.736;9.218;2023-11-21T07:38:11;2.78;;;1.02;;
29384;SDS011;16367;48.736;9.218;2023-11-21T07:40:12;4.95;;;1.40;;
29384;SDS011;16367;48.736;9.218;2023-11-21T07:42:14;4.20;;;1.33;;
29384;SDS011;16367;48.736;9.218;2023-11-21T07:44:15;3.70;;;1.40;;
29384;SDS011;16367;48.736;9.218;2023-11-21T07:46:17;3.55;;;1.25;;
29384;SDS011;16367;48.736;9.218;2023-11-21T07:48:20;3.92;;;1.63;;
29384;SDS011;16367;48.736;9.218;2023-11-21T07:50:22;3.67;;;1.10;;
29384;SDS011;16367;48.736;9.218;2023-11-21T07:57:05;4.78;;;1.30;;
29384;SDS011;16367;48.736;9.218;2023-11-21T07:59:07;3.50;;;1.30;;
29384;SDS011;16367;48.736;9.218;2023-11-21T08:01:08;4.00;;;1.58;;
29384;SDS011;16367;48.736;9.218;2023-11-21T08:03:10;4.05;;;1.60;;
29384;SDS011;16367;48.736;9.218;2023-11-21T08:05:12;4.90;;;1.45;;
29384;SDS011;16367;48.736;9.218;2023-11-21T08:07:25;3.90;;;1.45;;
29384;SDS011;16367;48.736;9.218;2023-11-21T08:09:26;4.18;;;1.42;;
29384;SDS011;16367;48.736;9.218;2023-11-21T08:11:27;3.40;;;1.35;;
29384;SDS011;16367;48.736;9.218;2023-11-21T08:13:33;6.47;;;1.63;;
29384;SDS011;16367;48.736;9.218;2023-11-21T08:16:23;6.55;;;1.70;;
29384;SDS011;16367;48.736;9.218;2023-11-21T08:18:25;4.50;;;1.90;;
29384;SDS011;16367;48.736;9.218;2023-11-21T08:20:26;5.80;;;1.88;;
29384;SDS011;16367;48.736;9.218;2023-11-21T08:22:29;3.80;;;1.40;;
29384;SDS011;16367;48.736;9.218;2023-11-21T08:24:30;4.43;;;1.70;;
29384;SDS011;16367;48.736;9.218;2023-11-21T08:26:31;4.68;;;1.80;;
29384;SDS011;16367;48.736;9.218;2023-11-21T08:28:33;3.90;;;1.40;;
29384;SDS011;16367;48.736;9.218;2023-11-21T08:30:34;4.25;;;1.67;;
29384;SDS011;16367;48.736;9.218;2023-11-21T08:32:37;3.70;;;1.40;;
29384;SDS011;16367;48.736;9.218;2023-11-21T08:38:19;4.90;;;1.80;;
29384;SDS011;16367;48.736;9.218;2023-11-21T08:40:20;5.43;;;1.50;;
29384;SDS011;16367;48.736;9.218;2023-11-21T08:42:22;5.13;;;1.63;;
29384;SDS011;16367;48.736;9.218;2023-11-21T08:44:23;5.43;;;1.70;;
29384;SDS011;16367;48.736;9.218;2023-11-21T08:46:25;5.53;;;1.80;;
29384;SDS011;16367;48.736;9.218;2023-11-21T08:48:27;3.50;;;1.45;;
29384;SDS011;16367;48.736;9.218;2023-11-21T08:50:30;3.83;;;1.50;;
29384;SDS011;16367;48.736;9.218;2023-11-21T08:52:31;4.63;;;1.63;;
29384;SDS011;16367;48.736;9.218;2023-11-21T08:54:33;4.18;;;1.67;;
29384;SDS011;16367;48.736;9.218;2023-11-21T09:04:00;3.88;;;1.42;;
29384;SDS011;16367;48.736;9.218;2023-11-21T09:06:03;4.43;;;1.50;;
29384;SDS011;16367;48.736;9.218;2023-11-21T09:08:05;4.35;;;1.50;;
29384;SDS011;16367;48.736;9.218;2023-11-21T09:10:07;3.47;;;1.35;;
29384;SDS011;16367;48.736;9.218;2023-11-21T09:12:10;3.67;;;1.60;;
29384;SDS011;16367;48.736;9.218;2023-11-21T09:14:12;4.25;;;1.23;;
29384;SDS011;16367;48.736;9.218;2023-11-21T09:16:16;3.22;;;1.05;;
29384;SDS011;16367;48.736;9.218;2023-11-21T09:18:18;3.25;;;1.10;;
29384;SDS011;16367;48.736;9.218;2023-11-21T09:20:20;3.30;;;1.23;;
29384;SDS011;16367;48.736;9.218;2023-11-21T09:26:36;2.67;;;1.02;;
29384;SDS011;16367;48.736;9.218;2023-11-21T09:28:38;4.22;;;1.13;;
29384;SDS011;16367;48.736;9.218;2023-11-21T09:30:40;3.17;;;1.02;;
29384;SDS011;16367;48.736;9.218;2023-11-21T09:32:41;1.90;;;0.75;;
29384;SDS011;16367;48.736;9.218;2023-11-21T09:34:46;3.55;;;1.00;;
29384;SDS011;16367;48.736;9.218;2023-11-21T09:36:47;4.85;;;1.50;;
29384;SDS011;16367;48.736;9.218;2023-11-21T09:38:49;3.33;;;0.90;;
29384;SDS011;16367;48.736;9.218;2023-11-21T09:40:51;2.85;;;0.90;;
29384;SDS011;16367;48.736;9.218;2023-11-21T09:42:55;4.78;;;1.00;;
29384;SDS011;16367;48.736;9.218;2023-11-21T09:51:06;3.42;;;0.82;;
29384;SDS011;16367;48.736;9.218;2023-11-21T09:53:12;2.17;;;0.70;;
29384;SDS011;16367;48.736;9.218;2023-11-21T09:55:17;3.38;;;1.00;;
29384;SDS011;16367;48.736;9.218;2023-11-21T09:57:21;2.30;;;0.60;;
29384;SDS011;16367;48.736;9.218;2023-11-21T09:59:24;3.78;;;0.90;;
29384;SDS011;16367;48.736;9.218;2023-11-21T10:01:30;2.80;;;0.73;;
29384;SDS011;16367;48.736;9.218;2023-11-21T10:03:34;1.83;;;0.65;;
29384;SDS011;16367;48.736;9.218;2023-11-21T10:05:37;3.65;;;1.00;;
29384;SDS011;16367;48.736;9.218;2023-11-21T10:07:40;3.05;;;0.93;;
29384;SDS011;16367;48.736;9.218;2023-11-21T10:13:54;6.32;;;1.10;;
29384;SDS011;16367;48.736;9.218;2023-11-21T10:15:58;3.20;;;0.80;;
29384;SDS011;16367;48.736;9.218;2023-11-21T10:18:01;2.47;;;0.80;;
29384;SDS011;16367;48.736;9.218;2023-11-21T10:20:04;3.60;;;0.80;;
29384;SDS011;16367;48.736;9.218;2023-11-21T10:22:12;1.23;;;0.55;;
29384;SDS011;16367;48.736;9.218;2023-11-21T10:24:15;2.45;;;0.80;;
29384;SDS011;16367;48.736;9.218;2023-11-21T10:26:18;3.00;;;0.70;;
29384;SDS011;16367;48.736;9.218;2023-11-21T10:28:35;2.05;;;0.70;;
29384;SDS011;16367;48.736;9.218;2023-11-21T10:30:38;2.78;;;0.70;;
29384;SDS011;16367;48.736;9.218;2023-11-21T10:37:11;2.17;;;0.63;;
29384;SDS011;16367;48.736;9.218;2023-11-21T10:39:14;1.40;;;0.52;;
29384;SDS011;16367;48.736;9.218;2023-11-21T10:41:18;3.00;;;0.88;;
29384;SDS011;16367;48.736;9.218;2023-11-21T10:43:21;2.28;;;0.73;;
29384;SDS011;16367;48.736;9.218;2023-11-21T10:45:26;2.15;;;0.80;;
29384;SDS011;16367;48.736;9.218;2023-11-21T10:47:30;2.33;;;0.88;;
29384;SDS011;16367;48.736;9.218;2023-11-21T10:49:32;2.30;;;0.85;;
29384;SDS011;16367;48.736;9.218;2023-11-21T10:51:33;4.10;;;0.90;;
29384;SDS011;16367;48.736;9.218;2023-11-21T10:53:38;2.67;;;0.88;;
29384;SDS011;16367;48.736;9.218;2023-11-21T10:59:56;2.58;;;0.60;;
29384;SDS011;16367;48.736;9.218;2023-11-21T11:01:58;1.75;;;0.50;;
29384;SDS011;16367;48.736;9.218;2023-11-21T11:04:01;2.58;;;0.50;;
29384;SDS011;16367;48.736;9.218;2023-11-21T11:06:07;2.08;;;0.70;;
29384;SDS011;16367;48.736;9.218;2023-11-21T11:08:12;2.08;;;0.60;;
29384;SDS011;16367;48.736;9.218;2023-11-21T11:10:19;4.20;;;1.20;;
29384;SDS011;16367;48.736;9.218;2023-11-21T11:12:26;2.20;;;0.60;;
29384;SDS011;16367;48.736;9.218;2023-11-21T11:14:28;2.20;;;0.65;;
29384;SDS011;16367;48.736;9.218;2023-11-21T11:16:31;1.85;;;0.65;;
29384;SDS011;16367;48.736;9.218;2023-11-21T11:23:09;2.95;;;0.80;;
29384;SDS011;16367;48.736;9.218;2023-11-21T11:25:32;2.17;;;0.70;;
29384;SDS011;16367;48.736;9.218;2023-11-21T11:27:48;2.25;;;0.70;;
29384;SDS011;16367;48.736;9.218;2023-11-21T11:29:57;3.63;;;1.80;;
29384;SDS011;16367;48.736;9.218;2023-11-21T11:32:09;2.08;;;0.75;;
29384;SDS011;16367;48.736;9.218;2023-11-21T11:34:30;2.25;;;0.80;;
29384;SDS011;16367;48.736;9.218;2023-11-21T11:36:34;2.85;;;0.90;;
29384;SDS011;16367;48.736;9.218;2023-11-21T11:38:38;2.38;;;0.80;;
29384;SDS011;16367;48.736;9.218;2023-11-21T11:40:46;2.08;;;0.70;;
29384;SDS011;16367;48.736;9.218;2023-11-21T11:47:13;3.28;;;0.90;;
29384;SDS011;16367;48.736;9.218;2023-11-21T11:49:27;2.42;;;0.80;;
29384;SDS011;16367;48.736;9.218;2023-11-21T11:51:28;2.35;;;0.80;;
29384;SDS011;16367;48.736;9.218;2023-11-21T11:53:35;2.72;;;0.82;;
29384;SDS011;16367;48.736;9.218;2023-11-21T11:55:38;1.70;;;0.60;;
29384;SDS011;16367;48.736;9.218;2023-11-21T11:57:40;4.10;;;0.93;;
29384;SDS011;16367;48.736;9.218;2023-11-21T12:02:10;2.25;;;0.80;;
29384;SDS011;16367;48.736;9.218;2023-11-21T12:07:41;3.03;;;1.00;;
29384;SDS011;16367;48.736;9.218;2023-11-21T12:09:43;2.55;;;1.13;;
29384;SDS011;16367;48.736;9.218;2023-11-21T12:11:48;3.50;;;1.00;;
29384;SDS011;16367;48.736;9.218;2023-11-21T12:13:49;3.50;;;1.30;;
29384;SDS011;16367;48.736;9.218;2023-11-21T12:15:53;5.53;;;1.20;;
29384;SDS011;16367;48.736;9.218;2023-11-21T12:17:55;3.45;;;1.48;;
29384;SDS011;16367;48.736;9.218;2023-11-21T12:20:01;4.68;;;1.20;;
29384;SDS011;16367;48.736;9.218;2023-11-21T12:22:04;10.07;;;1.30;;
29384;SDS011;16367;48.736;9.218;2023-11-21T12:24:07;4.95;;;1.40;;
29384;SDS011;16367;48.736;9.218;2023-11-21T12:30:24;3.40;;;1.30;;
29384;SDS011;16367;48.736;9.218;2023-11-21T12:32:28;3.40;;;1.20;;
29384;SDS011;16367;48.736;9.218;2023-11-21T12:34:30;4.30;;;1.77;;
29384;SDS011;16367;48.736;9.218;2023-11-21T12:36:31;4.35;;;1.80;;
29384;SDS011;16367;48.736;9.218;2023-11-21T12:38:34;4.88;;;1.77;;
29384;SDS011;16367;48.736;9.218;2023-11-21T12:40:36;4.63;;;2.00;;
29384;SDS011;16367;48.736;9.218;2023-11-21T12:42:37;4.55;;;1.85;;
29384;SDS011;16367;48.736;9.218;2023-11-21T12:44:40;6.28;;;2.08;;
29384;SDS011;16367;48.736;9.218;2023-11-21T12:46:43;8.52;;;2.50;;
29384;SDS011;16367;48.736;9.218;2023-11-21T12:53:20;4.65;;;2.15;;
29384;SDS011;16367;48.736;9.218;2023-11-21T12:55:22;6.22;;;2.83;;
29384;SDS011;16367;48.736;9.218;2023-11-21T12:57:25;6.53;;;2.70;;
29384;SDS011;16367;48.736;9.218;2023-11-21T12:59:28;5.95;;;2.72;;
29384;SDS011;16367;48.736;9.218;2023-11-21T13:01:31;4.60;;;1.95;;
29384;SDS011;16367;48.736;9.218;2023-11-21T13:03:32;5.70;;;2.53;;
29384;SDS011;16367;48.736;9.218;2023-11-21T13:05:37;4.70;;;2.08;;
29384;SDS011;16367;48.736;9.218;2023-11-21T13:07:41;6.43;;;1.70;;
29384;SDS011;16367;48.736;9.218;2023-11-21T13:09:48;5.78;;;2.22;;
29384;SDS011;16367;48.736;9.218;2023-11-21T13:16:25;4.20;;;1.75;;
29384;SDS011;16367;48.736;9.218;2023-11-21T13:18:26;4.90;;;1.88;;
29384;SDS011;16367;48.736;9.218;2023-11-21T13:20:29;4.55;;;1.83;;
29384;SDS011;16367;48.736;9.218;2023-11-21T13:22:30;5.13;;;1.92;;
29384;SDS011;16367;48.736;9.218;2023-11-21T13:24:33;5.30;;;1.92;;
29384;SDS011;16367;48.736;9.218;2023-11-21T13:26:34;5.47;;;2.05;;
29384;SDS011;16367;48.736;9.218;2023-11-21T13:28:37;4.93;;;2.30;;
29384;SDS011;16367;48.736;9.218;2023-11-21T13:30:39;5.35;;;2.25;;
29384;SDS011;16367;48.736;9.218;2023-11-21T13:32:41;5.35;;;2.17;;
29384;SDS011;16367;48.736;9.218;2023-11-21T13:38:06;5.13;;;2.38;;
29384;SDS011;16367;48.736;9.218;2023-11-21T13:40:10;4.20;;;1.90;;
29384;SDS011;16367;48.736;9.218;2023-11-21T13:42:15;4.72;;;1.92;;
29384;SDS011;16367;48.736;9.218;2023-11-21T13:44:17;3.88;;;1.40;;
29384;SDS011;16367;48.736;9.218;2023-11-21T13:46:27;2.75;;;1.13;;
29384;SDS011;16367;48.736;9.218;2023-11-21T13:48:28;3.42;;;1.27;;
29384;SDS011;16367;48.736;9.218;2023-11-21T13:50:34;4.63;;;1.40;;
29384;SDS011;16367;48.736;9.218;2023-11-21T13:52:36;3.15;;;1.00;;
29384;SDS011;16367;48.736;9.218;2023-11-21T13:54:39;3.58;;;1.10;;
29384;SDS011;16367;48.736;9.218;2023-11-21T14:00:53;3.85;;;1.08;;
29384;SDS011;16367;48.736;9.218;2023-11-21T14:02:57;3.97;;;1.20;;
29384;SDS011;16367;48.736;9.218;2023-11-21T14:05:01;4.28;;;1.20;;
29384;SDS011;16367;48.736;9.218;2023-11-21T14:07:09;4.05;;;1.35;;
29384;SDS011;16367;48.736;9.218;2023-11-21T14:09:25;4.35;;;1.67;;
29384;SDS011;16367;48.736;9.218;2023-11-21T14:11:33;6.63;;;2.10;;
29384;SDS011;16367;48.736;9.218;2023-11-21T14:13:46;4.50;;;2.22;;
29384;SDS011;16367;48.736;9.218;2023-11-21T14:15:49;5.30;;;2.35;;
29384;SDS011;16367;48.736;9.218;2023-11-21T14:17:55;5.43;;;2.35;;
29384;SDS011;16367;48.736;9.218;2023-11-21T14:26:05;8.32;;;2.97;;
29384;SDS011;16367;48.736;9.218;2023-11-21T14:28:07;7.28;;;3.35;;
29384;SDS011;16367;48.736;9.218;2023-11-21T14:30:09;6.82;;;3.40;;
29384;SDS011;16367;48.736;9.218;2023-11-21T14:32:13;6.40;;;3.05;;
29384;SDS011;16367;48.736;9.218;2023-11-21T14:34:16;8.02;;;3.60;;
29384;SDS011;16367;48.736;9.218;2023-11-21T14:36:23;5.63;;;3.17;;
29384;SDS011;16367;48.736;9.218;2023-11-21T14:38:24;6.20;;;2.90;;
29384;SDS011;16367;48.736;9.218;2023-11-21T14:40:26;7.35;;;3.15;;
29384;SDS011;16367;48.736;9.218;2023-11-21T14:42:32;6.63;;;3.10;;
29384;SDS011;16367;48.736;9.218;2023-11-21T14:48:47;7.32;;;3.30;;
29384;SDS011;16367;48.736;9.218;2023-11-21T14:50:59;6.63;;;2.97;;
29384;SDS011;16367;48.736;9.218;2023-11-21T14:53:18;6.80;;;3.20;;
29384;SDS011;16367;48.736;9.218;2023-11-21T14:55:40;5.63;;;2.63;;
29384;SDS011;16367;48.736;9.218;2023-11-21T14:57:57;5.63;;;2.60;;
29384;SDS011;16367;48.736;9.218;2023-11-21T15:00:03;7.55;;;3.05;;
29384;SDS011;16367;48.736;9.218;2023-11-21T15:02:10;8.80;;;2.90;;
29384;SDS011;16367;48.736;9.218;2023-11-21T15:04:21;5.25;;;2.03;;
29384;SDS011;16367;48.736;9.218;2023-11-21T15:12:43;5.60;;;2.50;;
29384;SDS011;16367;48.736;9.218;2023-11-21T15:14:46;5.15;;;2.30;;
29384;SDS011;16367;48.736;9.218;2023-11-21T15:16:50;5.35;;;2.25;;